YPPD/PHE METAR and TAF weather

Enter ICAO airport designator
Station Type Date Time Source
YPPD METAR 2021/06/24 06:30 UTC NOAA

YPPD 240630Z AUTO 12014KT 9999 // NCD 21/03 Q1017 RF00.0/000.0


Station Type Date Time Source
YPPD Decoded METAR 2021/06/24 06:30 UTC NOAA

Port Hedland Pardoo, Australia (YPPD) 20-06S 119-34E 10M
Jun 24, 2021 - 02:30 AM EDT / 2021.06.24 0630 UTC
Wind: from the ESE (120 degrees) at 16 MPH (14 KT):0
Visibility: greater than 7 mile(s):0
Temperature: 69 F (21 C)
Dew Point: 37 F (3 C)
Relative Humidity: 30%
Pressure (altimeter): 30.03 in. Hg (1017 hPa)
ob: YPPD 240630Z AUTO 12014KT 9999 // NCD 21/03 Q1017 RF00.0/000.0
cycle: 6

Station Type Date Time Source
YPPD TAF 2021/06/24 06:36 UTC NOAA

TAF YPPD 240509Z 2406/2506 11012KT CAVOK
FM240930 11009KT CAVOK
FM241200 14010KT CAVOK
FM250100 11018KT CAVOK

Example: see airport list